Hessville, New York
Current Conditions -  °F | °C
As of 1:35 AM on Monday 26 Jan 2015 (Local Time) from KNY0 Reporting Station
Clear Clear  
Wind Chill: -7°   Ceiling: Unl
Heat Index:   Visibility: 10mi
Dew Point: -5°   Wind: 5mph
Humidity: 73%   Direction: 50°NE
Pressure: 30.03"   Gusts: NA
Location:  42.9271°N, 74.711°W
Report Text: KNY0 260635Z AUTO 05004KT 10SM CLR M16/M20 A3003 RMK AO2 T11641203
Loading
Personal Weather Stations






























Interactive Weather Map New forecast layout! Learn more

10-Day Weather Forecast

Advertisements
Track Severe Weather on mobile